Flight Track Log - Related Links

Times and Time Zones

All times are in EDT time to prevent confusion due to time zone crossing. See the N52407 flight status page for this flight to view local times or setup timezone preferences in your user account.

Time Position Orientation Groundspeed Altitude Reporting Facility
EDT Latitude Longitude Course Direction KTS MPH feet Rate Location/Type
Sun 02:47:33 PM 39.4833 -76.4833 339° North 100 115 3,100  Level Potomac TRACON
Sun 02:48:33 PM 39.5167 -76.5000 339° North 95 109 3,700 509 Climbing Potomac TRACON
Sun 02:49:19 PM 39.5250 -76.5036 342° North 97 112 4,000 444 Climbing Washington Center
Sun 02:50:21 PM 39.5522 -76.5164 340° North 93 107 4,500 341 Climbing Washington Center
Sun 02:51:22 PM 39.5789 -76.5289 340° North 95 109 4,700 49 Climbing Washington Center
Sun 02:52:23 PM 39.6061 -76.5417 340° North 99 114 4,600  Descending Washington Center
Sun 02:53:25 PM 39.6281 -76.5528 339° North 95 109 4,700 48 Climbing Washington Center
Sun 02:54:29 PM 39.6519 -76.5667 336° Northwest 94 108 4,700 -48 Level Washington Center
Sun 02:55:30 PM 39.6783 -76.5781 342° North 94 108 4,600 -48 Descending Washington Center
Sun 02:56:34 PM 39.7081 -76.5953 336° Northwest 95 109 4,600  Level Washington Center
Sun 02:57:35 PM 39.7336 -76.6083 339° North 96 110 4,600 49 Level Washington Center
Sun 02:58:36 PM 39.7597 -76.6231 337° Northwest 98 113 4,700  Climbing Washington Center
Sun 02:59:39 PM 39.7853 -76.6342 342° North 98 113 4,600 -48 Descending Washington Center
Sun 03:00:40 PM 39.8064 -76.6439 341° North 89 102 4,600  Level Washington Center
Sun 03:01:43 PM 39.8328 -76.6567 340° North 90 104 4,600  Level Washington Center
Sun 03:02:45 PM 39.8611 -76.6703 340° North 91 105 4,600 48 Level Washington Center
Sun 03:03:49 PM 39.8836 -76.6806 341° North 91 105 4,700  Climbing Washington Center
Sun 03:04:49 PM 39.9122 -76.6936 341° North 97 112 4,600 -244 Descending Washington Center
Sun 03:05:52 PM 39.9378 -76.7050 341° North 98 113 4,200 -242 Descending Washington Center
Sun 03:06:53 PM 39.9606 -76.7142 343° North 93 107 4,100  Descending Washington Center
Sun 03:07:57 PM 39.9861 -76.7203 350° North 91 105 4,200 -192 Climbing Washington Center
Sun 03:08:58 PM 40.0111 -76.7275 348° North 91 105 3,700 -344 Descending Washington Center
Sun 03:09:59 PM 40.0400 -76.7358 348° North 91 105 3,500 -384 Descending Washington Center
Sun 03:11:03 PM 40.0633 -76.7400 352° North 91 105 2,900 -532 Descending Washington Center
Sun 03:12:03 PM 40.0886 -76.7472 348° North 91 105 2,400 -500 Descending Washington Center
Sun 03:14:00 PM 40.1382 -76.8088 333° Northwest  Level FlightAware Approximate
Sun 03:21:00 PM 40.2167 -76.8500 339° North  Level FlightAware Approximate
Sun 03:22:00 PM 40.2171 -76.8514 180° South  Level Estimated

Login

Don't have an account? Register now (free) for customized features, flight alerts, and more!